createdAt,value
2022-10-22T00:02:55.782Z,10.56
2022-10-22T00:05:58.820Z,10.51
2022-10-22T00:09:01.368Z,10.62
2022-10-22T00:12:05.000Z,10.63
2022-10-22T00:15:08.070Z,10.56
2022-10-22T00:18:11.415Z,10.48
2022-10-22T00:21:14.103Z,10.50
2022-10-22T00:24:16.899Z,10.41
2022-10-22T00:27:19.634Z,10.57
2022-10-22T00:30:23.053Z,10.46
2022-10-22T00:33:29.608Z,10.54
2022-10-22T00:36:32.437Z,10.43
2022-10-22T00:39:35.270Z,10.41
2022-10-22T00:42:38.348Z,10.53
2022-10-22T00:45:41.456Z,10.55
2022-10-22T00:48:44.384Z,10.38
2022-10-22T00:51:46.911Z,10.35
2022-10-22T00:54:50.975Z,10.38
2022-10-22T00:57:55.846Z,10.48
2022-10-22T01:00:59.108Z,10.49
2022-10-22T01:04:01.765Z,10.31
2022-10-22T01:07:04.955Z,10.25
2022-10-22T01:10:26.494Z,10.27
2022-10-22T01:13:44.206Z,10.25
2022-10-22T01:16:52.498Z,10.46
2022-10-22T01:20:14.131Z,10.38
2022-10-22T01:23:31.799Z,10.36
2022-10-22T01:27:12.012Z,10.32
2022-10-22T01:30:15.631Z,10.29
2022-10-22T01:33:22.891Z,10.43
2022-10-22T01:36:26.027Z,10.29
2022-10-22T01:39:31.011Z,10.23
2022-10-22T01:42:33.606Z,10.14
2022-10-22T01:45:42.353Z,10.16
2022-10-22T01:49:12.932Z,10.20
2022-10-22T01:52:35.864Z,10.19
2022-10-22T01:55:53.335Z,10.20
2022-10-22T01:59:04.114Z,10.19
2022-10-22T02:02:09.854Z,10.27
2022-10-22T02:05:23.229Z,10.19
2022-10-22T02:08:31.060Z,10.19
2022-10-22T02:11:34.452Z,10.25
2022-10-22T02:14:41.259Z,10.21
2022-10-22T02:17:46.674Z,10.38
2022-10-22T02:20:49.905Z,10.19
2022-10-22T02:23:52.666Z,10.09
2022-10-22T02:27:07.371Z,10.13
2022-10-22T02:30:14.191Z,10.38
2022-10-22T02:33:27.151Z,10.47
2022-10-22T02:36:30.637Z,10.42
2022-10-22T02:39:34.102Z,10.11
2022-10-22T02:42:39.514Z,10.16
2022-10-22T02:45:42.180Z,9.97
2022-10-22T02:48:45.024Z,9.90
2022-10-22T02:51:47.617Z,10.15
2022-10-22T02:54:50.509Z,10.02
2022-10-22T02:57:53.038Z,9.82
2022-10-22T03:00:55.835Z,9.77
2022-10-22T03:03:58.367Z,9.77
2022-10-22T03:07:01.135Z,9.74
2022-10-22T03:10:04.194Z,9.89
2022-10-22T03:13:07.093Z,9.74
2022-10-22T03:16:09.610Z,9.80
2022-10-22T03:19:12.597Z,9.71
2022-10-22T03:22:20.387Z,9.55
2022-10-22T03:25:26.980Z,9.55
2022-10-22T03:28:31.649Z,9.66
2022-10-22T03:31:35.495Z,9.45
2022-10-22T03:34:38.008Z,9.36
2022-10-22T03:37:41.026Z,9.29
2022-10-22T03:40:45.970Z,9.38
2022-10-22T03:43:52.753Z,9.40
2022-10-22T03:46:58.660Z,9.18
2022-10-22T03:50:06.195Z,9.06
2022-10-22T03:53:10.621Z,9.17
2022-10-22T03:56:13.825Z,9.24
2022-10-22T03:59:16.510Z,9.06
2022-10-22T04:02:19.468Z,9.00
2022-10-22T04:05:22.244Z,8.97
2022-10-22T04:08:24.778Z,9.00
2022-10-22T04:11:27.787Z,9.07
2022-10-22T04:14:30.346Z,9.13
2022-10-22T04:17:34.927Z,9.18
2022-10-22T04:20:37.518Z,9.15
2022-10-22T04:23:45.463Z,9.24
2022-10-22T04:26:47.970Z,8.99
2022-10-22T04:29:52.345Z,8.98
2022-10-22T04:32:54.788Z,9.04
2022-10-22T04:35:57.646Z,8.99
2022-10-22T04:39:01.427Z,9.03
2022-10-22T04:42:04.463Z,9.05
2022-10-22T04:45:07.924Z,9.01
2022-10-22T04:48:10.975Z,9.17
2022-10-22T04:51:17.638Z,9.30
2022-10-22T04:54:20.345Z,9.11
2022-10-22T04:57:22.851Z,9.02
2022-10-22T05:00:25.532Z,8.90
2022-10-22T05:03:28.042Z,8.82
2022-10-22T05:06:33.211Z,8.82
2022-10-22T05:09:35.775Z,8.84
2022-10-22T05:12:38.568Z,8.86
2022-10-22T05:15:41.311Z,9.01
2022-10-22T05:18:45.044Z,8.87
2022-10-22T05:21:47.563Z,8.90
2022-10-22T05:24:50.338Z,9.15
2022-10-22T05:27:55.212Z,9.02
2022-10-22T05:31:01.242Z,8.95
2022-10-22T05:34:03.751Z,9.15
2022-10-22T05:37:07.909Z,9.24
2022-10-22T05:40:19.553Z,9.69
2022-10-22T05:43:30.372Z,9.46
2022-10-22T05:46:35.344Z,9.32
2022-10-22T05:49:38.190Z,9.34
2022-10-22T05:52:40.805Z,9.51
2022-10-22T05:55:44.699Z,9.55
2022-10-22T05:58:47.804Z,9.51
2022-10-22T06:01:50.989Z,9.41
2022-10-22T06:04:53.807Z,9.29
2022-10-22T06:07:57.828Z,9.46
2022-10-22T06:11:00.932Z,9.85
2022-10-22T06:14:04.310Z,9.72
2022-10-22T06:17:07.101Z,9.99
2022-10-22T06:20:10.784Z,10.14
2022-10-22T06:23:15.682Z,10.35
2022-10-22T06:26:18.476Z,10.47
2022-10-22T06:29:21.769Z,10.52
2022-10-22T06:32:24.382Z,10.50
2022-10-22T06:35:27.103Z,10.86
2022-10-22T06:38:29.557Z,10.96
2022-10-22T06:41:32.569Z,11.12
2022-10-22T06:44:35.410Z,11.55
2022-10-22T06:47:38.659Z,11.83
2022-10-22T06:50:42.032Z,12.36
2022-10-22T06:53:45.518Z,12.16
2022-10-22T06:56:48.289Z,12.62
2022-10-22T06:59:51.328Z,12.80
2022-10-22T07:02:57.681Z,13.33
2022-10-22T07:06:04.254Z,12.94
2022-10-22T07:09:06.975Z,12.88
2022-10-22T07:12:09.899Z,13.05
2022-10-22T07:15:12.538Z,13.24
2022-10-22T07:18:15.342Z,12.39
2022-10-22T07:21:20.442Z,13.39
2022-10-22T07:24:23.261Z,13.48
2022-10-22T07:27:25.753Z,13.40
2022-10-22T07:30:28.557Z,13.05
2022-10-22T07:33:31.333Z,13.22
2022-10-22T07:36:34.168Z,13.72
2022-10-22T07:39:37.784Z,13.35
2022-10-22T07:42:41.210Z,13.57
2022-10-22T07:45:45.028Z,13.86
2022-10-22T07:48:48.318Z,15.08
2022-10-22T07:51:50.893Z,16.00
2022-10-22T07:54:53.949Z,16.60
2022-10-22T07:57:56.558Z,16.84
2022-10-22T08:01:01.107Z,17.11
2022-10-22T08:04:04.154Z,17.02
2022-10-22T08:07:06.807Z,17.43
2022-10-22T08:10:12.098Z,17.53
2022-10-22T08:13:15.382Z,17.55
2022-10-22T08:16:18.445Z,18.30
2022-10-22T08:19:21.601Z,18.50
2022-10-22T08:22:24.563Z,18.85
2022-10-22T08:25:27.855Z,18.11
2022-10-22T08:28:32.933Z,17.61
2022-10-22T08:31:35.591Z,18.36
2022-10-22T08:34:38.722Z,19.29
2022-10-22T08:37:41.648Z,20.41
2022-10-22T08:43:54.623Z,19.08
2022-10-22T08:47:22.688Z,17.94
2022-10-22T08:50:54.596Z,17.50
2022-10-22T08:54:22.921Z,17.75
2022-10-22T08:57:52.304Z,17.72
2022-10-22T09:01:13.861Z,17.12
2022-10-22T09:04:28.804Z,16.25
2022-10-22T09:07:31.732Z,15.97
2022-10-22T09:10:38.297Z,16.15
2022-10-22T09:13:44.734Z,16.27
2022-10-22T09:17:12.638Z,16.19
2022-10-22T09:20:28.794Z,16.30
2022-10-22T09:23:58.313Z,16.49
2022-10-22T09:27:02.839Z,16.27
2022-10-22T09:30:05.952Z,16.32
2022-10-22T09:33:24.846Z,16.76
2022-10-22T09:36:31.393Z,16.76
2022-10-22T09:39:38.956Z,16.42
2022-10-22T09:42:41.606Z,16.72
2022-10-22T09:45:46.043Z,15.83
2022-10-22T09:48:53.080Z,15.57
2022-10-22T09:52:01.065Z,15.57
2022-10-22T09:55:14.147Z,15.66
2022-10-22T09:58:18.775Z,15.85
2022-10-22T10:01:29.921Z,16.02
2022-10-22T10:04:42.046Z,16.28
2022-10-22T10:07:44.782Z,16.31
2022-10-22T10:10:50.010Z,16.73
2022-10-22T10:14:07.412Z,16.87
2022-10-22T10:17:28.281Z,16.81
2022-10-22T10:20:49.770Z,16.91
2022-10-22T10:24:06.073Z,16.45
2022-10-22T10:27:20.584Z,16.11
2022-10-22T10:30:24.499Z,16.17
2022-10-22T10:33:57.970Z,16.69
2022-10-22T10:37:09.689Z,16.93
2022-10-22T10:40:19.804Z,17.25
2022-10-22T10:43:50.994Z,16.72
2022-10-22T10:47:06.075Z,16.68
2022-10-22T10:50:50.328Z,17.50
2022-10-22T10:54:20.623Z,17.43
2022-10-22T10:57:51.138Z,16.38
2022-10-22T11:00:58.183Z,16.12
2022-10-22T11:04:22.762Z,16.44
2022-10-22T11:07:36.906Z,16.30
2022-10-22T11:10:52.745Z,16.33
2022-10-22T11:14:05.260Z,16.09
2022-10-22T11:17:16.516Z,16.42
2022-10-22T11:20:28.450Z,16.38
2022-10-22T11:23:46.469Z,16.30
2022-10-22T11:27:05.304Z,16.10
2022-10-22T11:30:23.071Z,16.19
2022-10-22T11:33:29.314Z,16.25
2022-10-22T11:36:33.746Z,16.30
2022-10-22T11:39:45.753Z,16.27
2022-10-22T11:42:53.636Z,16.17
2022-10-22T11:46:27.298Z,16.51
2022-10-22T11:50:16.152Z,16.63
2022-10-22T11:53:31.552Z,16.75
2022-10-22T11:56:38.935Z,16.82
2022-10-22T11:59:52.115Z,17.21
2022-10-22T12:03:33.305Z,17.15
2022-10-22T12:07:00.324Z,16.85
2022-10-22T12:10:18.477Z,16.80
2022-10-22T12:13:25.027Z,17.22
2022-10-22T12:16:54.584Z,17.03
2022-10-22T12:20:03.219Z,17.20
2022-10-22T12:23:09.221Z,17.45
2022-10-22T12:29:38.331Z,17.33
2022-10-22T12:32:41.519Z,17.30
2022-10-22T12:35:46.519Z,17.16
2022-10-22T12:38:49.933Z,16.96
2022-10-22T12:41:54.370Z,17.02
2022-10-22T12:44:57.259Z,17.36
2022-10-22T12:48:02.324Z,17.13
2022-10-22T12:51:09.605Z,17.17
2022-10-22T12:54:25.267Z,17.06
2022-10-22T12:57:28.171Z,16.98
2022-10-22T13:00:34.613Z,16.78
2022-10-22T13:03:47.180Z,16.84
2022-10-22T13:06:54.529Z,16.90
2022-10-22T13:09:59.716Z,17.02
2022-10-22T13:13:04.108Z,16.88
2022-10-22T13:16:19.266Z,17.00
2022-10-22T13:19:54.681Z,16.91
2022-10-22T13:23:02.874Z,16.83
2022-10-22T13:26:17.794Z,16.84
2022-10-22T13:29:23.477Z,16.64
2022-10-22T13:32:32.154Z,16.83
2022-10-22T13:35:38.964Z,16.72
2022-10-22T13:38:42.522Z,16.70
2022-10-22T13:41:50.745Z,16.65
2022-10-22T13:44:53.335Z,16.77
2022-10-22T13:47:57.327Z,16.77
2022-10-22T13:51:00.098Z,16.79
2022-10-22T13:54:09.383Z,16.68
2022-10-22T13:57:11.947Z,16.59
2022-10-22T14:00:20.732Z,16.61
2022-10-22T14:03:33.370Z,16.54
2022-10-22T14:09:44.451Z,16.66
2022-10-22T14:12:52.344Z,16.62
2022-10-22T14:15:56.985Z,16.60
2022-10-22T14:19:01.152Z,16.65
2022-10-22T14:22:05.174Z,16.49
2022-10-22T14:25:12.590Z,16.48
2022-10-22T14:28:15.498Z,16.55
2022-10-22T14:31:17.984Z,16.20
2022-10-22T14:34:20.802Z,16.30
2022-10-22T14:37:24.929Z,16.24
2022-10-22T14:40:27.889Z,16.46
2022-10-22T14:43:31.325Z,16.31
2022-10-22T14:46:34.326Z,16.33
2022-10-22T14:49:36.860Z,16.30
2022-10-22T14:52:41.053Z,16.05
2022-10-22T14:55:45.052Z,16.05
2022-10-22T14:58:48.113Z,15.84
2022-10-22T15:01:50.716Z,15.80
2022-10-22T15:04:53.799Z,15.90
2022-10-22T15:07:59.083Z,15.66
2022-10-22T15:11:10.439Z,15.65
2022-10-22T15:14:13.110Z,15.69
2022-10-22T15:17:17.652Z,15.59
2022-10-22T15:20:20.500Z,15.63
2022-10-22T15:23:23.589Z,15.71
2022-10-22T15:26:26.179Z,15.58
2022-10-22T15:29:30.318Z,15.50
2022-10-22T15:32:34.091Z,15.35
2022-10-22T15:35:38.833Z,15.39
2022-10-22T15:38:41.837Z,15.35
2022-10-22T15:41:44.661Z,15.18
2022-10-22T15:44:47.300Z,15.12
2022-10-22T15:47:51.269Z,15.13
2022-10-22T15:50:53.885Z,15.01
2022-10-22T15:53:59.089Z,15.02
2022-10-22T15:57:03.531Z,14.95
2022-10-22T16:00:07.137Z,14.95
2022-10-22T16:03:14.792Z,15.02
2022-10-22T16:06:17.554Z,14.81
2022-10-22T16:09:23.265Z,14.72
2022-10-22T16:12:26.352Z,14.54
2022-10-22T16:15:28.944Z,14.31
2022-10-22T16:18:31.899Z,14.25
2022-10-22T16:21:34.395Z,14.35
2022-10-22T16:24:43.260Z,14.07
2022-10-22T16:27:50.086Z,13.90
2022-10-22T16:30:53.057Z,13.99
2022-10-22T16:33:55.820Z,13.91
2022-10-22T16:36:58.557Z,13.80
2022-10-22T16:40:07.389Z,13.71
2022-10-22T16:43:11.529Z,13.64
2022-10-22T16:46:19.215Z,13.55
2022-10-22T16:49:22.155Z,13.39
2022-10-22T16:52:24.657Z,13.20
2022-10-22T16:55:27.463Z,13.18
2022-10-22T16:58:30.864Z,13.15
2022-10-22T17:01:37.890Z,13.14
2022-10-22T17:04:43.192Z,13.24
2022-10-22T17:07:46.254Z,13.07
2022-10-22T17:10:48.726Z,13.05
2022-10-22T17:13:54.030Z,13.01
2022-10-22T17:16:57.790Z,12.93
2022-10-22T17:20:00.916Z,13.00
2022-10-22T17:23:03.651Z,13.13
2022-10-22T17:26:09.621Z,13.07
2022-10-22T17:29:13.387Z,12.98
2022-10-22T17:32:16.484Z,12.96
2022-10-22T17:35:20.019Z,12.84
2022-10-22T17:38:23.427Z,12.78
2022-10-22T17:41:29.908Z,12.72
2022-10-22T17:44:32.904Z,12.70
2022-10-22T17:47:36.350Z,12.66
2022-10-22T17:50:46.908Z,12.72
2022-10-22T17:53:52.889Z,12.65
2022-10-22T17:56:55.770Z,12.64
2022-10-22T17:59:58.828Z,12.65
2022-10-22T18:03:01.669Z,12.63
2022-10-22T18:06:08.810Z,12.62
2022-10-22T18:09:17.361Z,12.56
2022-10-22T18:12:21.824Z,12.48
2022-10-22T18:15:26.093Z,12.45
2022-10-22T18:18:30.207Z,12.28
2022-10-22T18:21:34.408Z,12.10
2022-10-22T18:24:38.953Z,12.02
2022-10-22T18:27:42.709Z,11.94
2022-10-22T18:30:47.960Z,11.97
2022-10-22T18:33:51.173Z,11.86
2022-10-22T18:36:54.074Z,11.87
2022-10-22T18:39:56.830Z,11.90
2022-10-22T18:42:59.917Z,11.97
2022-10-22T18:46:05.559Z,12.03
2022-10-22T18:49:11.728Z,12.02
2022-10-22T18:52:14.558Z,12.00
2022-10-22T18:55:18.518Z,11.85
2022-10-22T18:58:21.232Z,11.83
2022-10-22T19:01:29.259Z,11.85
2022-10-22T19:04:37.100Z,11.87
2022-10-22T19:07:41.355Z,11.88
2022-10-22T19:10:46.184Z,11.82
2022-10-22T19:13:49.325Z,11.81
2022-10-22T19:16:52.079Z,11.85
2022-10-22T19:19:55.433Z,12.04
2022-10-22T19:23:00.777Z,12.00
2022-10-22T19:26:12.738Z,12.03
2022-10-22T19:29:17.661Z,11.99
2022-10-22T19:32:21.417Z,11.81
2022-10-22T19:35:24.312Z,11.80
2022-10-22T19:38:29.712Z,11.76
2022-10-22T19:41:33.530Z,11.62
2022-10-22T19:44:36.483Z,11.62
2022-10-22T19:47:39.742Z,11.54
2022-10-22T19:50:42.769Z,11.51
2022-10-22T19:53:45.917Z,11.48
2022-10-22T19:56:49.941Z,11.47
2022-10-22T19:59:53.147Z,11.56
2022-10-22T20:02:56.171Z,11.49
2022-10-22T20:05:59.158Z,11.43
2022-10-22T20:09:01.780Z,11.41
2022-10-22T20:12:04.959Z,11.27
2022-10-22T20:15:08.143Z,11.29
2022-10-22T20:18:11.668Z,11.24
2022-10-22T20:21:16.026Z,11.12
2022-10-22T20:24:19.345Z,11.12
2022-10-22T20:27:23.396Z,11.11
2022-10-22T20:30:27.022Z,11.08
2022-10-22T20:33:29.590Z,11.14
2022-10-22T20:36:33.298Z,11.12
2022-10-22T20:39:40.000Z,11.07
2022-10-22T20:42:43.527Z,11.08
2022-10-22T20:45:46.315Z,10.89
2022-10-22T20:48:55.178Z,10.94
2022-10-22T20:51:57.679Z,10.89
2022-10-22T20:55:00.762Z,10.92
2022-10-22T20:58:03.291Z,11.05
2022-10-22T21:01:10.674Z,11.04
2022-10-22T21:04:14.212Z,11.12
2022-10-22T21:07:17.003Z,11.19
2022-10-22T21:10:19.626Z,11.13
2022-10-22T21:13:22.892Z,11.00
2022-10-22T21:16:26.008Z,10.84
2022-10-22T21:19:29.151Z,10.91
2022-10-22T21:22:32.622Z,10.83
2022-10-22T21:25:39.479Z,10.79
2022-10-22T21:28:45.053Z,10.65
2022-10-22T21:31:48.511Z,10.71
2022-10-22T21:34:51.273Z,10.82
2022-10-22T21:37:54.369Z,10.80
2022-10-22T21:40:57.517Z,10.82
2022-10-22T21:44:00.648Z,10.87
2022-10-22T21:47:03.291Z,10.76
2022-10-22T21:50:06.492Z,10.68
2022-10-22T21:53:10.681Z,10.69
2022-10-22T21:56:19.299Z,10.65
2022-10-22T21:59:21.775Z,10.64
2022-10-22T22:06:12.434Z,10.75
2022-10-22T22:09:15.269Z,10.77
2022-10-22T22:12:18.663Z,10.79
2022-10-22T22:15:21.653Z,10.67
2022-10-22T22:18:24.375Z,10.63
2022-10-22T22:21:27.648Z,10.57
2022-10-22T22:24:30.271Z,10.47
2022-10-22T22:27:33.491Z,10.41
2022-10-22T22:30:36.444Z,10.37
2022-10-22T22:33:39.212Z,10.35
2022-10-22T22:36:45.552Z,10.39
2022-10-22T22:39:48.448Z,10.36
2022-10-22T22:42:50.931Z,10.47
2022-10-22T22:46:04.911Z,10.48
2022-10-22T22:49:07.891Z,10.36
2022-10-22T22:52:11.201Z,10.44
2022-10-22T22:55:13.694Z,10.43
2022-10-22T22:58:16.549Z,10.41
2022-10-22T23:01:30.425Z,10.51
2022-10-22T23:04:33.512Z,10.50
2022-10-22T23:07:36.017Z,10.53
2022-10-22T23:10:38.863Z,10.37
2022-10-22T23:13:43.065Z,10.34
2022-10-22T23:16:48.864Z,10.35
2022-10-22T23:19:51.453Z,10.45
2022-10-22T23:22:54.194Z,10.38
2022-10-22T23:29:13.148Z,10.56
2022-10-22T23:32:15.594Z,10.55
2022-10-22T23:35:18.554Z,10.43
2022-10-22T23:38:20.973Z,10.38
2022-10-22T23:41:24.024Z,10.33
2022-10-22T23:44:26.694Z,10.31
2022-10-22T23:47:29.438Z,10.32
2022-10-22T23:50:32.153Z,10.35
2022-10-22T23:53:34.990Z,10.39
2022-10-22T23:56:37.668Z,10.41
2022-10-22T23:59:40.601Z,10.46
